Sidi Ifni, Morocco
Current Conditions -  °F | °C
As of 8:00 AM on Friday 19 Dec 2014 (Local Time) from GMAG Reporting Station
Clear Clear  
Wind Chill: 50°   Ceiling: Unl
Heat Index: 50°   Visibility: 6mi
Dew Point: 41°   Wind: 9mph
Humidity: 71%   Direction: 80°E
Pressure: 30.36"   Gusts: NA
Location:  29.38°N, 10.18°W
Report Text: GMAG 190700Z 08008KT CAVOK 10/05 Q1028 NOSIG
Loading
Personal Weather Stations






























Interactive Weather Map New forecast layout! Learn more

10-Day Weather Forecast

Advertisements
Track Severe Weather on mobile